Time;durP1;ratioP1;P1;durP2;ratioP2;P2;SDS_P1;SDS_P2;PMS_P1;PMS_P2;Temp;Humidity;BMP_temperature;BMP_pressure;BME280_temperature;BME280_humidity;BME280_pressure;Samples;Min_cycle;Max_cycle;Signal;HPM_P1;HPM_P2
2022/08/02 00:01:42;;;;;;;0.40;0.20;;;;;;;29.56;39.07;99174.59;5050903;28;20048;-59
2022/08/02 00:04:09;;;;;;;0.95;0.30;;;;;;;29.59;39.08;99187.81;5050674;28;20044;-59
2022/08/02 00:06:34;;;;;;;0.20;0.20;;;;;;;29.59;39.05;99185.00;5050780;28;20436;-58
2022/08/02 00:09:00;;;;;;;2.25;0.20;;;;;;;29.59;38.77;99179.34;5050466;28;20537;-58
2022/08/02 00:11:26;;;;;;;0.20;0.20;;;;;;;29.60;39.20;99180.94;5050610;28;20476;-58
2022/08/02 00:13:51;;;;;;;0.57;0.25;;;;;;;29.59;38.82;99181.38;5050673;28;20107;-58
2022/08/02 00:16:17;;;;;;;0.80;0.30;;;;;;;29.60;39.15;99180.94;5050380;28;20053;-59
2022/08/02 00:18:43;;;;;;;0.15;0.10;;;;;;;29.60;39.03;99177.31;5050538;28;20049;-59
2022/08/02 00:21:08;;;;;;;0.30;0.20;;;;;;;29.59;38.89;99175.75;5050461;28;20094;-58
2022/08/02 00:23:34;;;;;;;0.40;0.32;;;;;;;29.57;39.34;99178.19;5050521;28;20044;-59
2022/08/02 00:25:59;;;;;;;0.40;0.30;;;;;;;29.59;39.25;99175.75;5050505;28;20140;-57
2022/08/02 00:28:25;;;;;;;0.40;0.35;;;;;;;29.59;38.94;99175.75;5048177;28;20056;-58
2022/08/02 00:30:51;;;;;;;0.75;0.35;;;;;;;29.59;38.90;99175.75;5050586;28;20044;-58
2022/08/02 00:33:16;;;;;;;0.22;0.20;;;;;;;29.60;39.01;99182.97;5050250;28;20390;-58
2022/08/02 00:35:42;;;;;;;0.22;0.22;;;;;;;29.57;38.93;99181.81;5050250;28;20175;-58
2022/08/02 00:38:07;;;;;;;0.95;0.65;;;;;;;29.60;38.87;99182.97;5050423;28;20048;-59
2022/08/02 00:40:32;;;;;;;0.30;0.30;;;;;;;29.59;39.11;99175.75;5050249;28;20622;-59
2022/08/02 00:43:07;;;;;;;0.20;0.20;;;;;;;29.60;39.24;99191.41;5050302;28;20053;-59
2022/08/02 00:45:34;;;;;;;0.30;0.30;;;;;;;29.60;39.25;99180.16;5050124;28;20041;-58
2022/08/02 00:48:00;;;;;;;0.40;0.22;;;;;;;29.59;39.03;99181.38;5050210;28;20149;-58
2022/08/02 00:50:26;;;;;;;0.50;0.30;;;;;;;29.59;39.10;99179.34;5050086;28;20041;-58
2022/08/02 00:52:52;;;;;;;0.25;0.25;;;;;;;29.61;38.87;99181.72;5050019;28;20527;-58
2022/08/02 00:55:17;;;;;;;0.15;0.10;;;;;;;29.59;38.99;99187.81;5049963;28;20572;-58
2022/08/02 00:57:43;;;;;;;0.55;0.38;;;;;;;29.59;39.38;99181.38;5049920;28;20049;-58
2022/08/02 01:00:10;;;;;;;0.20;0.20;;;;;;;29.59;38.97;99175.75;5049991;28;20037;-57
2022/08/02 01:02:35;;;;;;;0.30;0.25;;;;;;;29.60;39.31;99186.56;5049413;28;20083;-59
2022/08/02 01:05:00;;;;;;;0.98;0.35;;;;;;;29.60;39.11;99178.13;5049988;28;20084;-59
2022/08/02 01:07:26;;;;;;;0.30;0.30;;;;;;;29.62;39.30;99179.69;5049740;28;20053;-58
2022/08/02 01:09:52;;;;;;;0.57;0.30;;;;;;;29.59;38.93;99172.94;5049709;28;20052;-57
2022/08/02 01:12:17;;;;;;;2.13;0.75;;;;;;;29.60;39.11;99175.28;5049747;28;20052;-58
2022/08/02 01:14:46;;;;;;;0.63;0.30;;;;;;;29.62;39.29;99171.25;5049682;28;20100;-57
2022/08/02 01:17:23;;;;;;;0.13;0.13;;;;;;;29.62;38.82;99177.66;5049302;28;20045;-58
2022/08/02 01:20:33;;;;;;;0.38;0.30;;;;;;;29.64;38.88;99177.22;5049120;28;20049;-59
2022/08/02 01:23:08;;;;;;;0.70;0.40;;;;;;;29.65;39.07;99188.06;5010480;28;20098;-58
2022/08/02 01:26:11;;;;;;;0.60;0.35;;;;;;;29.64;39.10;99182.84;5048088;28;20041;-58
2022/08/02 01:28:52;;;;;;;0.25;0.22;;;;;;;29.66;38.83;99183.22;5049434;28;20077;-59
2022/08/02 01:31:31;;;;;;;0.15;0.15;;;;;;;29.64;39.01;99177.22;5048614;28;20041;-58
2022/08/02 01:34:03;;;;;;;0.30;0.30;;;;;;;29.66;38.79;99180.41;5049558;28;20098;-58
2022/08/02 01:36:41;;;;;;;0.40;0.22;;;;;;;29.65;39.01;99190.91;5049333;28;20059;-57
2022/08/02 01:39:11;;;;;;;0.47;0.30;;;;;;;29.66;38.96;99188.88;5047775;28;20084;-59
2022/08/02 01:41:37;;;;;;;0.30;0.30;;;;;;;29.66;38.86;99191.69;5047646;28;20137;-58
2022/08/02 01:44:04;;;;;;;0.45;0.20;;;;;;;29.66;38.98;99188.88;5049255;28;20041;-58
2022/08/02 01:46:31;;;;;;;0.40;0.30;;;;;;;29.65;39.22;99193.72;5049160;28;20049;-58
2022/08/02 01:49:00;;;;;;;0.22;0.20;;;;;;;29.68;39.28;99190.00;5049208;28;20086;-59
2022/08/02 01:54:15;;;;;;;0.30;0.30;;;;;;;29.69;39.25;99185.94;5049286;28;20044;-59
2022/08/02 01:56:41;;;;;;;0.88;0.30;;;;;;;29.68;39.05;99187.19;5049035;28;20420;-59
2022/08/02 01:59:12;;;;;;;0.20;0.20;;;;;;;29.68;39.22;99198.47;5049193;28;20053;-57
2022/08/02 02:01:39;;;;;;;0.40;0.30;;;;;;;29.70;39.21;99195.19;5047426;28;20049;-57
2022/08/02 02:04:07;;;;;;;0.17;0.15;;;;;;;29.70;38.80;99192.38;5049083;28;20385;-58
2022/08/02 02:06:34;;;;;;;0.40;0.30;;;;;;;29.70;38.83;99186.72;5049024;28;20513;-59
2022/08/02 02:09:00;;;;;;;0.40;0.30;;;;;;;29.72;39.00;99192.72;5048889;28;20060;-58
2022/08/02 02:11:26;;;;;;;1.55;0.50;;;;;;;29.72;38.96;99192.72;5048949;28;20055;-59
2022/08/02 02:13:52;;;;;;;0.57;0.30;;;;;;;29.71;39.14;99191.13;5050064;28;20037;-57
2022/08/02 02:16:20;;;;;;;0.45;0.30;;;;;;;29.72;39.03;99192.72;5052397;28;20068;-58
2022/08/02 02:18:47;;;;;;;0.15;0.10;;;;;;;29.72;38.90;99184.25;5052470;28;20477;-58
2022/08/02 02:21:13;;;;;;;0.40;0.30;;;;;;;29.72;39.16;99184.25;5052388;28;20048;-58
2022/08/02 02:23:39;;;;;;;0.65;0.30;;;;;;;29.72;39.09;99187.06;5052469;28;20056;-58
2022/08/02 02:26:05;;;;;;;0.38;0.25;;;;;;;29.72;39.16;99184.25;5052329;28;20111;-58
2022/08/02 02:28:33;;;;;;;0.52;0.30;;;;;;;29.72;38.70;99182.25;5052249;28;20135;-57
2022/08/02 02:31:13;;;;;;;0.35;0.30;;;;;;;29.71;39.03;99180.66;5052371;28;20041;-57
2022/08/02 02:34:03;;;;;;;0.30;0.30;;;;;;;29.72;38.90;99181.44;5052084;28;20535;-59
2022/08/02 02:36:31;;;;;;;0.20;0.20;;;;;;;29.74;38.70;99181.81;5051953;28;20091;-57
2022/08/02 02:39:02;;;;;;;0.38;0.30;;;;;;;29.72;38.73;99179.44;5052159;28;20098;-58
2022/08/02 02:41:28;;;;;;;0.45;0.20;;;;;;;29.73;38.90;99183.06;5050168;28;20064;-58
2022/08/02 02:43:58;;;;;;;0.40;0.30;;;;;;;29.72;38.67;99181.44;5051911;28;20116;-59
2022/08/02 02:46:25;;;;;;;0.35;0.20;;;;;;;29.73;38.65;99181.03;5052016;28;20041;-59
2022/08/02 02:48:52;;;;;;;0.43;0.40;;;;;;;29.74;38.62;99181.81;5052012;28;20874;-58
2022/08/02 02:51:18;;;;;;;0.45;0.30;;;;;;;29.74;38.63;99176.16;5051995;28;20041;-59
2022/08/02 02:53:45;;;;;;;0.20;0.20;;;;;;;29.72;38.65;99172.97;5051930;28;20041;-59
2022/08/02 02:56:12;;;;;;;0.40;0.20;;;;;;;29.73;38.99;99168.94;5051662;28;20076;-59
2022/08/02 02:58:38;;;;;;;0.28;0.20;;;;;;;29.73;39.11;99180.22;5051824;28;20578;-58
2022/08/02 03:03:49;;;;;;;0.40;0.30;;;;;;;29.74;38.94;99184.63;5051706;28;20059;-59
2022/08/02 03:06:15;;;;;;;0.30;0.28;;;;;;;29.74;38.79;99190.28;5051861;28;20536;-59
2022/08/02 03:08:40;;;;;;;0.20;0.20;;;;;;;29.73;38.67;99183.06;5051821;28;20045;-59
2022/08/02 03:11:08;;;;;;;0.50;0.28;;;;;;;29.74;38.82;99191.06;5051682;28;20501;-58
2022/08/02 03:13:34;;;;;;;0.50;0.20;;;;;;;29.72;39.02;99187.91;5051561;28;20136;-59
2022/08/02 03:16:02;;;;;;;0.43;0.30;;;;;;;29.75;38.70;99186.22;5049587;28;20127;-58
2022/08/02 03:18:31;;;;;;;0.40;0.40;;;;;;;29.74;38.94;99184.63;5051273;28;20048;-58
2022/08/02 03:21:08;;;;;;;0.20;0.20;;;;;;;29.72;38.67;99181.44;5051156;28;20051;-58
2022/08/02 03:23:34;;;;;;;0.30;0.20;;;;;;;29.75;39.01;99187.00;5051328;28;20040;-58
2022/08/02 03:26:00;;;;;;;0.45;0.22;;;;;;;29.74;39.00;99187.44;5051115;28;20041;-59
2022/08/02 03:28:26;;;;;;;0.28;0.28;;;;;;;29.76;38.69;99190.59;5051318;28;20049;-59
2022/08/02 03:30:51;;;;;;;0.30;0.30;;;;;;;29.74;38.91;99187.44;5051185;28;20052;-59
2022/08/02 03:33:18;;;;;;;0.30;0.30;;;;;;;29.73;38.94;99183.84;5051139;28;20048;-58
2022/08/02 03:35:47;;;;;;;0.20;0.20;;;;;;;29.74;38.80;99185.41;5051121;28;20045;-58
2022/08/02 03:38:15;;;;;;;0.65;0.20;;;;;;;29.74;39.01;99185.41;5033385;28;20144;-59
2022/08/02 03:40:44;;;;;;;0.38;0.30;;;;;;;29.73;38.67;99183.06;5049687;28;20620;-57
2022/08/02 03:43:11;;;;;;;0.30;0.15;;;;;;;29.75;38.96;99192.63;5051170;28;20254;-57
2022/08/02 03:45:40;;;;;;;0.50;0.30;;;;;;;29.74;39.03;99187.44;5051140;28;20138;-59
2022/08/02 03:48:07;;;;;;;0.38;0.30;;;;;;;29.75;38.79;99189.03;5049543;28;20044;-58
2022/08/02 03:50:35;;;;;;;0.70;0.20;;;;;;;29.74;38.81;99191.06;5050993;28;20048;-59
2022/08/02 03:53:01;;;;;;;0.30;0.20;;;;;;;29.74;38.62;99191.06;5051056;28;20366;-58
2022/08/02 03:55:26;;;;;;;1.02;0.30;;;;;;;29.72;38.65;99189.91;5050831;28;20509;-59
2022/08/02 03:57:52;;;;;;;0.40;0.30;;;;;;;29.75;38.56;99198.28;5050871;28;20056;-57
2022/08/02 04:00:20;;;;;;;0.28;0.28;;;;;;;29.73;38.62;99194.31;5050908;28;20048;-58
2022/08/02 04:02:46;;;;;;;0.20;0.20;;;;;;;29.75;38.99;99192.63;5050813;28;20119;-57
2022/08/02 04:05:12;;;;;;;0.30;0.25;;;;;;;29.74;38.67;99195.91;5050825;28;20080;-58
2022/08/02 04:07:38;;;;;;;0.47;0.28;;;;;;;29.75;38.86;99197.50;5050808;28;20048;-57
2022/08/02 04:10:06;;;;;;;0.20;0.20;;;;;;;29.75;38.97;99200.31;5050588;28;20037;-59
2022/08/02 04:12:32;;;;;;;0.28;0.25;;;;;;;29.71;38.83;99185.50;5050533;28;20049;-59
2022/08/02 04:14:58;;;;;;;0.52;0.30;;;;;;;29.76;38.98;99204.72;5050635;28;20045;-59
2022/08/02 04:17:26;;;;;;;0.40;0.30;;;;;;;29.75;38.61;99203.91;5050488;28;20052;-58
2022/08/02 04:20:20;;;;;;;0.10;0.10;;;;;;;29.76;38.73;99210.34;5050681;28;20091;-58
2022/08/02 04:22:56;;;;;;;0.30;0.30;;;;;;;29.76;38.75;99201.88;5046712;28;20063;-58
2022/08/02 04:25:23;;;;;;;0.70;0.32;;;;;;;29.74;38.76;99204.38;5049566;28;20492;-58
2022/08/02 04:27:49;;;;;;;0.20;0.20;;;;;;;29.75;38.97;99211.59;5050433;28;20461;-59
2022/08/02 04:30:16;;;;;;;0.20;0.20;;;;;;;29.74;39.05;99210.78;5050318;28;20048;-59
2022/08/02 04:32:43;;;;;;;0.22;0.20;;;;;;;29.75;38.85;99214.41;5050309;28;20111;-58
2022/08/02 04:35:09;;;;;;;0.20;0.20;;;;;;;29.75;38.56;99208.75;5048322;28;20886;-59
2022/08/02 04:37:36;;;;;;;0.40;0.30;;;;;;;29.74;38.87;99207.97;5049410;28;20049;-59
2022/08/02 04:40:07;;;;;;;0.30;0.30;;;;;;;29.75;39.08;99208.75;5050097;28;20076;-59
2022/08/02 04:42:32;;;;;;;0.32;0.30;;;;;;;29.75;38.57;99220.03;5050124;28;20501;-58
2022/08/02 04:44:57;;;;;;;1.00;0.30;;;;;;;29.75;39.06;99214.41;5050131;28;20051;-59
2022/08/02 04:47:23;;;;;;;0.30;0.22;;;;;;;29.75;38.70;99214.41;5049984;28;20041;-58
2022/08/02 04:49:48;;;;;;;0.20;0.20;;;;;;;29.75;38.80;99220.03;5050117;28;20123;-58
2022/08/02 04:52:14;;;;;;;0.30;0.20;;;;;;;29.73;38.96;99220.50;5049985;28;20060;-59
2022/08/02 04:54:39;;;;;;;0.22;0.20;;;;;;;29.75;38.78;99223.66;5050036;28;20037;-57
2022/08/02 04:57:53;;;;;;;0.30;0.30;;;;;;;29.75;38.72;99234.13;5049952;28;20114;-57
2022/08/02 04:59:50;;;;;;;0.25;0.25;;;;;;;29.74;38.74;99233.34;5049705;28;20119;-59
2022/08/02 05:02:15;;;;;;;0.47;0.22;;;;;;;29.75;38.91;99225.69;5049747;28;20148;-59
2022/08/02 05:04:41;;;;;;;0.50;0.30;;;;;;;29.75;39.10;99229.28;5049583;28;20045;-59
2022/08/02 05:07:06;;;;;;;0.55;0.40;;;;;;;29.75;38.75;99232.09;5050024;28;20076;-59
2022/08/02 05:09:32;;;;;;;0.63;0.30;;;;;;;29.75;38.65;99237.75;5049739;28;20047;-57
2022/08/02 05:11:57;;;;;;;0.20;0.20;;;;;;;29.74;39.04;99239.00;5049826;28;20044;-57
2022/08/02 05:14:22;;;;;;;0.30;0.20;;;;;;;29.75;38.97;99245.41;5049442;28;20140;-58
2022/08/02 05:16:48;;;;;;;0.25;0.20;;;;;;;29.74;39.04;99244.63;5049685;28;20076;-58
2022/08/02 05:19:13;;;;;;;0.40;0.30;;;;;;;29.73;38.65;99239.44;5049557;28;20053;-59
2022/08/02 05:21:39;;;;;;;0.40;0.32;;;;;;;29.74;38.92;99247.44;5049464;28;20072;-58
2022/08/02 05:24:05;;;;;;;0.20;0.20;;;;;;;29.73;38.62;99237.41;5049429;28;20040;-58
2022/08/02 05:26:30;;;;;;;0.15;0.15;;;;;;;29.74;38.66;99244.63;5049397;28;20114;-58
2022/08/02 05:28:55;;;;;;;0.40;0.30;;;;;;;29.74;38.64;99246.66;5049283;28;20400;-59
2022/08/02 05:31:21;;;;;;;0.60;0.30;;;;;;;29.74;38.93;99243.84;5049381;28;20037;-59
2022/08/02 05:33:46;;;;;;;0.20;0.20;;;;;;;29.74;38.79;99241.00;5049380;28;20049;-58
2022/08/02 05:36:12;;;;;;;0.15;0.15;;;;;;;29.75;38.99;99243.38;5049260;28;20566;-58
2022/08/02 05:38:38;;;;;;;0.30;0.17;;;;;;;29.75;38.64;99253.88;5049340;28;20056;-58
2022/08/02 05:41:04;;;;;;;0.43;0.30;;;;;;;29.74;38.77;99246.66;5049275;28;20508;-58
2022/08/02 05:43:30;;;;;;;0.60;0.20;;;;;;;29.75;38.77;99251.06;5049464;28;20044;-58
2022/08/02 05:45:55;;;;;;;0.43;0.30;;;;;;;29.73;38.72;99248.69;5049302;28;20044;-58
2022/08/02 05:48:21;;;;;;;0.68;0.40;;;;;;;29.75;38.99;99254.66;5048041;28;20532;-59
2022/08/02 05:50:51;;;;;;;1.08;0.50;;;;;;;29.74;38.63;99249.47;5049031;28;20037;-58
2022/08/02 05:53:16;;;;;;;0.20;0.13;;;;;;;29.75;38.66;99249.03;5049187;28;20100;-58
2022/08/02 05:55:50;;;;;;;0.38;0.35;;;;;;;29.74;39.04;99238.19;5049112;28;20060;-58
2022/08/02 05:58:24;;;;;;;0.40;0.40;;;;;;;29.75;39.11;99240.56;5048232;28;20405;-57
2022/08/02 06:00:54;;;;;;;0.20;0.20;;;;;;;29.75;38.75;99236.97;5049410;28;20087;-58
2022/08/02 06:03:33;;;;;;;0.47;0.20;;;;;;;29.58;38.78;99239.78;5048988;28;20065;-58
2022/08/02 06:06:25;;;;;;;0.35;0.30;;;;;;;29.44;38.83;99239.31;5047620;28;20106;-58
2022/08/02 06:09:02;;;;;;;0.20;0.20;;;;;;;29.28;40.15;99238.00;5044210;28;20767;-58
2022/08/02 06:11:35;;;;;;;0.32;0.30;;;;;;;29.12;40.30;99240.00;5048882;28;20076;-58
2022/08/02 06:14:03;;;;;;;0.47;0.40;;;;;;;28.98;40.45;99229.84;5048838;28;20090;-58
2022/08/02 06:16:29;;;;;;;0.30;0.30;;;;;;;28.86;40.45;99236.91;5048770;28;20049;-58
2022/08/02 06:18:57;;;;;;;0.40;0.30;;;;;;;28.85;40.74;99226.88;5048776;28;20044;-59
2022/08/02 06:21:24;;;;;;;0.82;0.30;;;;;;;28.84;40.38;99230.13;5048873;28;20476;-58
2022/08/02 06:23:50;;;;;;;0.30;0.30;;;;;;;28.78;40.48;99222.19;5048663;28;20071;-58
2022/08/02 06:26:17;;;;;;;0.20;0.20;;;;;;;28.80;40.69;99230.22;5048657;28;20052;-58
2022/08/02 06:28:44;;;;;;;0.50;0.40;;;;;;;28.81;40.43;99229.00;5048527;28;20056;-58
2022/08/02 06:31:13;;;;;;;3.40;0.30;;;;;;;28.79;40.48;99223.78;5048845;28;20094;-58
2022/08/02 06:33:38;;;;;;;0.20;0.20;;;;;;;28.84;40.53;99228.09;5048357;28;20059;-59
2022/08/02 06:36:20;;;;;;;0.77;0.40;;;;;;;28.85;40.49;99226.09;5048462;28;20049;-58
2022/08/02 06:39:19;;;;;;;0.60;0.30;;;;;;;28.81;40.35;99223.34;5048654;28;20041;-57
2022/08/02 06:41:48;;;;;;;0.35;0.22;;;;;;;28.83;40.23;99223.72;5048331;28;20049;-58
2022/08/02 06:44:14;;;;;;;0.50;0.40;;;;;;;28.85;40.17;99220.44;5048264;28;20033;-58
2022/08/02 06:46:41;;;;;;;0.85;0.30;;;;;;;28.85;40.32;99218.44;5048597;28;20057;-57
2022/08/02 06:49:07;;;;;;;0.63;0.40;;;;;;;28.85;40.10;99226.88;5048685;28;20543;-58
2022/08/02 06:51:33;;;;;;;0.47;0.32;;;;;;;28.81;40.15;99225.38;5048619;28;20094;-58
2022/08/02 06:53:58;;;;;;;0.35;0.30;;;;;;;28.79;40.05;99217.34;5048505;28;20045;-58
2022/08/02 06:56:23;;;;;;;0.70;0.32;;;;;;;28.77;39.91;99217.00;5048138;28;20366;-58
2022/08/02 06:58:49;;;;;;;0.20;0.20;;;;;;;28.81;40.20;99220.53;5048276;28;20045;-58
2022/08/02 07:01:14;;;;;;;0.30;0.30;;;;;;;28.79;39.73;99217.34;5051137;28;20394;-58
2022/08/02 07:03:40;;;;;;;0.30;0.30;;;;;;;28.77;39.96;99214.97;5051733;28;20037;-57
2022/08/02 07:06:10;;;;;;;0.57;0.30;;;;;;;28.77;39.95;99214.19;5051723;28;20052;-58
2022/08/02 07:08:37;;;;;;;0.45;0.30;;;;;;;28.76;39.87;99213.38;5050092;28;20060;-59
2022/08/02 07:11:07;;;;;;;0.22;0.22;;;;;;;28.74;39.68;99204.59;5051557;28;20540;-59
2022/08/02 07:13:33;;;;;;;0.65;0.30;;;;;;;28.74;39.61;99206.63;5051578;28;20080;-58
2022/08/02 07:15:59;;;;;;;0.65;0.30;;;;;;;28.75;39.76;99206.19;5051276;28;20532;-58
2022/08/02 07:18:25;;;;;;;0.30;0.30;;;;;;;28.73;39.99;99210.66;5051403;28;20049;-58
2022/08/02 07:20:51;;;;;;;0.35;0.30;;;;;;;28.72;39.51;99206.25;5051091;28;20532;-58
2022/08/02 07:23:17;;;;;;;0.30;0.30;;;;;;;28.69;39.68;99204.31;5051352;28;20045;-58
2022/08/02 07:25:43;;;;;;;0.20;0.20;;;;;;;28.70;39.73;99203.06;5051444;28;20386;-59
2022/08/02 07:28:09;;;;;;;0.20;0.20;;;;;;;28.70;39.52;99203.06;5051304;28;20044;-59
2022/08/02 07:30:35;;;;;;;0.38;0.30;;;;;;;28.73;39.70;99199.41;5051445;28;20048;-59
2022/08/02 07:33:01;;;;;;;0.30;0.28;;;;;;;28.70;39.75;99194.63;5051245;28;20037;-59
2022/08/02 07:35:27;;;;;;;0.30;0.30;;;;;;;28.72;39.42;99198.63;5051213;28;20041;-57
2022/08/02 07:37:52;;;;;;;0.88;0.50;;;;;;;28.71;39.53;99201.84;5051196;28;20048;-58
2022/08/02 07:40:18;;;;;;;0.25;0.25;;;;;;;28.70;39.42;99192.59;5051092;28;20049;-57
2022/08/02 07:42:44;;;;;;;0.40;0.30;;;;;;;28.66;39.45;99191.91;5051146;28;20045;-58
2022/08/02 07:45:12;;;;;;;0.20;0.20;;;;;;;28.66;39.48;99185.47;5050881;28;20045;-58
2022/08/02 07:47:38;;;;;;;0.47;0.28;;;;;;;28.72;39.37;99189.34;5051132;28;20472;-58
2022/08/02 07:50:05;;;;;;;0.30;0.20;;;;;;;28.70;39.18;99180.56;5051109;28;20045;-58
2022/08/02 07:52:31;;;;;;;0.40;0.40;;;;;;;28.71;39.25;99177.28;5049262;28;20087;-58
2022/08/02 07:54:56;;;;;;;0.30;0.20;;;;;;;28.72;39.32;99172.47;5050786;28;20449;-58
2022/08/02 07:57:22;;;;;;;0.50;0.30;;;;;;;28.71;39.16;99170.88;5050746;28;20041;-58
2022/08/02 07:59:47;;;;;;;0.70;0.40;;;;;;;28.74;39.28;99167.22;5050993;28;20060;-58
2022/08/02 08:02:16;;;;;;;0.30;0.30;;;;;;;28.75;39.13;99178.03;5050877;28;20036;-59
2022/08/02 08:04:42;;;;;;;0.57;0.38;;;;;;;28.73;38.89;99166.41;5050975;28;20082;-57
2022/08/02 08:07:10;;;;;;;0.32;0.22;;;;;;;28.72;39.17;99164.00;5050760;28;20561;-58
2022/08/02 08:09:40;;;;;;;0.30;0.30;;;;;;;28.71;39.31;99165.25;5050612;28;20612;-58
2022/08/02 08:12:07;;;;;;;0.30;0.30;;;;;;;28.70;39.01;99158.81;5049831;28;20048;-58
2022/08/02 08:14:32;;;;;;;0.35;0.30;;;;;;;28.73;38.90;99157.19;5050502;28;20049;-58
2022/08/02 08:16:58;;;;;;;0.40;0.30;;;;;;;28.70;38.99;99146.78;5050651;28;20463;-58
2022/08/02 08:19:23;;;;;;;0.30;0.30;;;;;;;28.72;38.79;99156.38;5050515;28;20067;-57
2022/08/02 08:21:48;;;;;;;0.40;0.25;;;;;;;28.69;38.77;99153.63;5050439;28;20053;-58
2022/08/02 08:24:14;;;;;;;0.32;0.30;;;;;;;28.70;38.98;99143.97;5050298;28;20041;-58
2022/08/02 08:26:39;;;;;;;0.30;0.30;;;;;;;28.70;38.90;99147.56;5050328;28;20049;-58
2022/08/02 08:29:06;;;;;;;0.25;0.25;;;;;;;28.69;38.82;99145.19;5048765;28;20136;-57
2022/08/02 08:31:32;;;;;;;0.20;0.20;;;;;;;28.70;38.87;99149.59;5050040;28;20041;-57
2022/08/02 08:33:57;;;;;;;0.50;0.40;;;;;;;28.72;38.83;99144.31;5050232;28;20045;-57
2022/08/02 08:36:23;;;;;;;0.70;0.40;;;;;;;28.71;38.63;99146.34;5050093;28;20107;-58
2022/08/02 08:38:49;;;;;;;0.30;0.20;;;;;;;28.68;38.65;99149.25;5050022;28;20052;-59
2022/08/02 08:41:18;;;;;;;0.32;0.30;;;;;;;28.71;38.78;99145.53;5032163;28;20059;-58
2022/08/02 08:43:45;;;;;;;0.55;0.30;;;;;;;28.68;38.56;99132.34;5050165;28;20135;-58
2022/08/02 08:46:26;;;;;;;0.20;0.20;;;;;;;28.67;38.74;99136.41;5050101;28;20132;-58
2022/08/02 08:48:57;;;;;;;0.28;0.22;;;;;;;28.67;38.83;99136.41;5050201;28;20049;-58
2022/08/02 08:51:26;;;;;;;0.30;0.30;;;;;;;28.65;38.57;99134.03;5050048;28;20063;-57
2022/08/02 08:53:55;;;;;;;0.35;0.30;;;;;;;28.65;38.51;99124.78;5050002;28;20045;-57
2022/08/02 08:56:22;;;;;;;0.65;0.40;;;;;;;28.68;38.65;99129.53;5050002;28;20445;-58
2022/08/02 08:58:47;;;;;;;0.30;0.25;;;;;;;28.68;38.41;99126.72;5050047;28;20051;-58
2022/08/02 09:01:15;;;;;;;0.20;0.20;;;;;;;28.68;38.64;99132.34;5049904;28;20041;-58
2022/08/02 09:03:41;;;;;;;0.50;0.32;;;;;;;28.65;38.48;99124.78;5049844;28;20090;-59
2022/08/02 09:06:07;;;;;;;0.45;0.30;;;;;;;28.62;38.56;99132.06;5048003;28;20132;-58
2022/08/02 09:08:32;;;;;;;0.45;0.40;;;;;;;28.65;38.26;99127.63;5050033;28;20140;-58
2022/08/02 09:10:58;;;;;;;0.38;0.30;;;;;;;28.67;38.12;99117.50;5049807;28;20044;-59
2022/08/02 09:13:28;;;;;;;0.63;0.30;;;;;;;28.67;38.33;99123.13;5049615;28;20041;-58
2022/08/02 09:16:05;;;;;;;0.17;0.17;;;;;;;28.64;38.21;99120.38;5049677;28;20345;-59
2022/08/02 09:18:36;;;;;;;0.30;0.22;;;;;;;28.67;38.30;99116.69;5047373;28;20056;-58
2022/08/02 09:21:03;;;;;;;0.20;0.20;;;;;;;28.67;38.18;99119.50;5049555;28;20051;-58
2022/08/02 09:23:39;;;;;;;0.30;0.30;;;;;;;28.66;38.49;99121.53;5049460;28;20045;-59
2022/08/02 09:26:07;;;;;;;0.32;0.30;;;;;;;28.67;38.17;99108.25;5048186;28;20513;-57
2022/08/02 09:28:34;;;;;;;0.32;0.25;;;;;;;28.68;38.27;99115.47;5047689;28;20509;-59
2022/08/02 09:31:08;;;;;;;0.43;0.20;;;;;;;28.67;38.16;99113.88;5049529;28;20493;-58
2022/08/02 09:33:35;;;;;;;0.22;0.22;;;;;;;28.66;38.15;99109.50;5047506;28;20132;-58
2022/08/02 09:36:05;;;;;;;0.20;0.20;;;;;;;28.69;38.10;99111.41;5049299;28;20053;-58
2022/08/02 09:38:32;;;;;;;0.22;0.20;;;;;;;28.67;38.12;99114.69;5049395;28;20053;-59
2022/08/02 09:40:59;;;;;;;0.52;0.35;;;;;;;28.63;38.11;99107.53;5049126;28;20507;-59
2022/08/02 09:43:35;;;;;;;0.40;0.40;;;;;;;28.63;38.03;99107.53;5049379;28;20557;-58
2022/08/02 09:46:16;;;;;;;0.40;0.30;;;;;;;28.69;38.09;99108.59;5049493;28;20478;-58
2022/08/02 09:48:58;;;;;;;0.32;0.30;;;;;;;28.68;37.96;99104.22;5049368;28;20055;-58
2022/08/02 09:51:27;;;;;;;0.35;0.20;;;;;;;28.71;38.28;99120.22;5049018;28;20100;-58
2022/08/02 09:53:58;;;;;;;0.40;0.30;;;;;;;28.67;38.40;99113.88;5049131;28;20562;-58
2022/08/02 09:56:25;;;;;;;0.50;0.30;;;;;;;28.60;38.44;99109.22;5049036;28;20052;-58
2022/08/02 09:58:53;;;;;;;0.32;0.30;;;;;;;28.62;38.36;99103.94;5049027;28;20037;-58
2022/08/02 10:01:32;;;;;;;0.30;0.20;;;;;;;28.63;38.49;99107.53;5048902;28;20136;-59
2022/08/02 10:04:01;;;;;;;0.20;0.20;;;;;;;28.65;38.63;99107.91;5048998;28;20130;-58
2022/08/02 10:06:27;;;;;;;0.32;0.20;;;;;;;28.68;38.44;99096.56;5049044;28;20044;-58
2022/08/02 10:08:53;;;;;;;0.43;0.40;;;;;;;28.70;38.47;99094.09;5048978;28;20052;-58
2022/08/02 10:11:20;;;;;;;0.50;0.30;;;;;;;28.69;38.46;99097.34;5048973;28;20037;-58
2022/08/02 10:13:47;;;;;;;0.68;0.40;;;;;;;28.67;38.48;99078.09;5048934;28;20072;-58
2022/08/02 10:16:15;;;;;;;0.63;0.20;;;;;;;28.73;38.57;99073.53;5048680;28;20048;-58
2022/08/02 10:18:41;;;;;;;0.75;0.30;;;;;;;28.77;38.59;99070.63;5048638;28;20045;-59
2022/08/02 10:21:17;;;;;;;0.30;0.30;;;;;;;28.76;38.58;99060.59;5048817;28;20049;-58
2022/08/02 10:23:44;;;;;;;0.55;0.30;;;;;;;28.77;38.39;99070.63;5047589;28;20045;-59
2022/08/02 10:26:14;;;;;;;0.40;0.30;;;;;;;28.78;38.47;99052.50;5048715;28;20053;-58
2022/08/02 10:28:44;;;;;;;0.50;0.30;;;;;;;28.81;38.40;99070.56;5045463;28;20562;-57
2022/08/02 10:31:13;;;;;;;0.35;0.20;;;;;;;28.82;38.41;99058.84;5048685;28;20037;-58
2022/08/02 10:33:40;;;;;;;0.63;0.30;;;;;;;28.82;38.33;99056.03;5048632;28;20103;-58
2022/08/02 10:36:07;;;;;;;0.30;0.30;;;;;;;28.81;38.46;99048.81;5051218;28;20136;-57
2022/08/02 10:38:34;;;;;;;0.20;0.20;;;;;;;28.81;38.42;99048.81;5052174;28;20037;-58
2022/08/02 10:41:00;;;;;;;0.47;0.40;;;;;;;28.81;38.52;99043.19;5052188;28;20076;-58
2022/08/02 10:43:31;;;;;;;0.30;0.30;;;;;;;28.85;38.55;99045.91;5052221;28;20049;-58
2022/08/02 10:46:34;;;;;;;0.40;0.32;;;;;;;28.84;38.37;99045.13;5052025;28;20037;-57
2022/08/02 10:48:59;;;;;;;;;;;;;;;28.94;38.14;99046.94;5052565;28;20060;-58
2022/08/02 10:51:51;;;;;;;2.17;0.40;;;;;;;28.85;38.33;99043.88;5051998;28;19923;-58
2022/08/02 10:54:21;;;;;;;0.40;0.30;;;;;;;28.88;38.20;99025.34;5051762;28;20132;-58
2022/08/02 10:56:48;;;;;;;0.55;0.32;;;;;;;28.89;38.28;99021.28;5051703;28;20425;-57
2022/08/02 10:59:26;;;;;;;0.43;0.30;;;;;;;28.87;38.27;99040.66;5051790;28;20044;-59
2022/08/02 11:01:59;;;;;;;0.15;0.15;;;;;;;28.87;38.36;99033.00;5051883;28;20199;-59
2022/08/02 11:04:28;;;;;;;0.20;0.20;;;;;;;28.90;38.42;99020.06;5051730;28;20489;-59
2022/08/02 11:07:07;;;;;;;0.52;0.30;;;;;;;28.87;38.59;99016.09;5051830;28;20057;-58
2022/08/02 11:09:33;;;;;;;0.22;0.20;;;;;;;28.90;38.57;99036.94;5051840;28;20052;-58
2022/08/02 11:12:02;;;;;;;1.23;0.40;;;;;;;28.89;38.38;99022.06;5051553;28;20037;-57
2022/08/02 11:14:28;;;;;;;0.10;0.10;;;;;;;28.91;38.42;99016.81;5051516;28;20095;-59
2022/08/02 11:16:56;;;;;;;0.40;0.22;;;;;;;28.92;38.44;99003.53;5051597;28;20083;-59
2022/08/02 11:19:26;;;;;;;0.57;0.25;;;;;;;28.90;38.22;99006.75;5051288;28;20056;-58
2022/08/02 11:22:09;;;;;;;0.55;0.30;;;;;;;28.92;38.39;99004.31;5051273;28;20045;-58
2022/08/02 11:24:39;;;;;;;0.40;0.30;;;;;;;28.90;38.47;98998.31;5051493;28;20496;-58
2022/08/02 11:27:07;;;;;;;0.82;0.40;;;;;;;28.86;37.95;98994.78;5051455;28;20114;-58
2022/08/02 11:29:35;;;;;;;0.30;0.20;;;;;;;28.83;38.15;98994.88;5051170;28;20120;-58
2022/08/02 11:32:01;;;;;;;0.20;0.20;;;;;;;28.72;38.78;98984.69;5051245;28;20037;-58
2022/08/02 11:34:27;;;;;;;1.25;0.40;;;;;;;28.72;38.85;98993.13;5051187;28;20630;-58
2022/08/02 11:36:52;;;;;;;0.35;0.30;;;;;;;28.72;39.06;98997.94;5051097;28;20040;-58
2022/08/02 11:39:20;;;;;;;0.47;0.35;;;;;;;28.75;38.90;98997.09;5051222;28;20138;-58
2022/08/02 11:41:55;;;;;;;0.30;0.20;;;;;;;28.77;38.70;98992.59;5033354;28;20041;-57
2022/08/02 11:44:22;;;;;;;0.30;0.28;;;;;;;28.81;38.79;98988.91;5051286;28;20045;-58
2022/08/02 11:46:58;;;;;;;0.30;0.30;;;;;;;28.83;38.84;98981.59;5049731;28;20037;-58